Jump to content

Sign in to follow this  
Guest tooohip

This Ain't right

Recommended Posts

Guest tooohip

KJFK 250251Z 13004KT 8SM BKN047 BKN110 OVC250 20/19 A3012 RMK AO2 SLP197 T02000194 51005 $This is a metar I just got. Today is the 6th of July, I'm flying online using online weather.My METAR's just went from the 6th to the 25th???

Share this post


Link to post
Share on other sites

Hi,That is strange indeed I just got this:KJFK 062051Z 35006KT 10SM FEW060 SCT130 BKN250 24/12 A3005 RMK AO2 SLP174 T02390122 53002 $If you are not already, see what happens if you force the Secondary Server.Hope this helps,Jimhttp://www.hifisim.com/Active Sky V6 Development Team Active Sky V6 Proud SupporterHiFi Beta TeamRadar Contact Supporter: http://www.jdtllc.com/AirSource Member: http://www.air-source.us/FSEconomy Member:http://dot.kelder.net:8080/fseconomy/

Share this post


Link to post
Share on other sites
Guest tooohip

Thanks Jim. I knew I should have waited to post. Everything is back to normal. ;-)

Share this post


Link to post
Share on other sites

Create an account or sign in to comment

You need to be a member in order to leave a comment

Create an account

Sign up for a new account in our community. It's easy!

Register a new account

Sign in

Already have an account? Sign in here.

Sign In Now
Sign in to follow this  

  • Tom Allensworth,
    Founder of AVSIM Online


  • Flight Simulation's Premier Resource!

    AVSIM is a free service to the flight simulation community. AVSIM is staffed completely by volunteers and all funds donated to AVSIM go directly back to supporting the community. Your donation here helps to pay our bandwidth costs, emergency funding, and other general costs that crop up from time to time. Thank you for your support!

    Click here for more information and to see all donations year to date.
  • Donation Goals

    AVSIM's 2020 Fundraising Goal

    Donate to our annual general fundraising goal. This donation keeps our doors open and providing you service 24 x 7 x 365. Your donation here helps to pay our bandwidth costs, emergency funding, and other general costs that crop up from time to time. We reset this goal every new year for the following year's goal.


    46%
    $11,715.00 of $25,000.00 Donate Now
×
×
  • Create New...